sensor_id;sensor_type;location;lat;lon;timestamp;pressure;altitude;pressure_sealevel;temperature;humidity
68941;BME280;55982;51.476;7.552;2023-04-05T00:01:29;100529.25;;;2.03;100.00
68941;BME280;55982;51.476;7.552;2023-04-05T00:03:55;100523.63;;;1.68;100.00
68941;BME280;55982;51.476;7.552;2023-04-05T00:06:28;100522.47;;;1.48;100.00
68941;BME280;55982;51.476;7.552;2023-04-05T00:09:01;100526.59;;;1.37;100.00
68941;BME280;55982;51.476;7.552;2023-04-05T00:11:28;100529.06;;;1.28;100.00
68941;BME280;55982;51.476;7.552;2023-04-05T00:13:55;100517.75;;;1.20;100.00
68941;BME280;55982;51.476;7.552;2023-04-05T00:16:21;100520.09;;;1.05;100.00
68941;BME280;55982;51.476;7.552;2023-04-05T00:18:47;100522.56;;;0.98;100.00
68941;BME280;55982;51.476;7.552;2023-04-05T00:21:20;100520.69;;;0.90;100.00
68941;BME280;55982;51.476;7.552;2023-04-05T00:23:46;100523.94;;;0.79;100.00
68941;BME280;55982;51.476;7.552;2023-04-05T00:26:13;100521.31;;;0.74;100.00
68941;BME280;55982;51.476;7.552;2023-04-05T00:28:38;100522.06;;;0.69;100.00
68941;BME280;55982;51.476;7.552;2023-04-05T00:31:04;100516.84;;;0.66;100.00
68941;BME280;55982;51.476;7.552;2023-04-05T00:33:30;100510.78;;;0.62;100.00
68941;BME280;55982;51.476;7.552;2023-04-05T00:35:55;100515.81;;;0.56;100.00
68941;BME280;55982;51.476;7.552;2023-04-05T00:38:21;100513.22;;;0.55;100.00
68941;BME280;55982;51.476;7.552;2023-04-05T00:40:46;100513.91;;;0.46;100.00
68941;BME280;55982;51.476;7.552;2023-04-05T00:43:11;100513.78;;;0.39;100.00
68941;BME280;55982;51.476;7.552;2023-04-05T00:45:37;100507.78;;;0.40;100.00
68941;BME280;55982;51.476;7.552;2023-04-05T00:48:02;100502.56;;;0.37;100.00
68941;BME280;55982;51.476;7.552;2023-04-05T00:50:29;100502.38;;;0.25;100.00
68941;BME280;55982;51.476;7.552;2023-04-05T00:52:56;100499.44;;;0.07;100.00
68941;BME280;55982;51.476;7.552;2023-04-05T00:55:22;100501.22;;;0.09;100.00
68941;BME280;55982;51.476;7.552;2023-04-05T00:57:47;100506.72;;;-0.15;100.00
68941;BME280;55982;51.476;7.552;2023-04-05T01:00:14;100507.19;;;-0.32;100.00
68941;BME280;55982;51.476;7.552;2023-04-05T01:02:43;100504.75;;;-0.28;100.00
68941;BME280;55982;51.476;7.552;2023-04-05T01:08:24;100508.13;;;-0.29;100.00
68941;BME280;55982;51.476;7.552;2023-04-05T01:10:58;100501.25;;;-0.30;100.00
68941;BME280;55982;51.476;7.552;2023-04-05T01:13:24;100498.69;;;-0.30;100.00
68941;BME280;55982;51.476;7.552;2023-04-05T01:15:50;100500.38;;;-0.30;100.00
68941;BME280;55982;51.476;7.552;2023-04-05T01:18:15;100496.06;;;-0.33;100.00
68941;BME280;55982;51.476;7.552;2023-04-05T01:20:48;100502.81;;;-0.38;100.00
68941;BME280;55982;51.476;7.552;2023-04-05T01:23:21;100501.88;;;-0.41;100.00
68941;BME280;55982;51.476;7.552;2023-04-05T01:31:36;100485.44;;;-0.48;100.00
68941;BME280;55982;51.476;7.552;2023-04-05T01:37:13;100488.16;;;-0.42;100.00
68941;BME280;55982;51.476;7.552;2023-04-05T01:39:40;100488.13;;;-0.43;100.00
68941;BME280;55982;51.476;7.552;2023-04-05T01:42:05;100488.16;;;-0.42;100.00
68941;BME280;55982;51.476;7.552;2023-04-05T01:44:31;100481.38;;;-0.38;100.00
68941;BME280;55982;51.476;7.552;2023-04-05T01:46:56;100490.81;;;-0.39;100.00
68941;BME280;55982;51.476;7.552;2023-04-05T01:49:23;100490.84;;;-0.36;100.00
68941;BME280;55982;51.476;7.552;2023-04-05T01:51:48;100486.56;;;-0.37;100.00
68941;BME280;55982;51.476;7.552;2023-04-05T01:54:14;100489.91;;;-0.41;100.00
68941;BME280;55982;51.476;7.552;2023-04-05T01:56:39;100480.34;;;-0.46;100.00
68941;BME280;55982;51.476;7.552;2023-04-05T01:59:05;100477.00;;;-0.42;100.00
68941;BME280;55982;51.476;7.552;2023-04-05T02:01:30;100473.63;;;-0.40;100.00
68941;BME280;55982;51.476;7.552;2023-04-05T02:03:56;100473.63;;;-0.40;100.00
68941;BME280;55982;51.476;7.552;2023-04-05T02:06:21;100470.16;;;-0.42;100.00
68941;BME280;55982;51.476;7.552;2023-04-05T02:08:47;100469.25;;;-0.44;100.00
68941;BME280;55982;51.476;7.552;2023-04-05T02:11:12;100464.78;;;-0.54;100.00
68941;BME280;55982;51.476;7.552;2023-04-05T02:13:38;100464.69;;;-0.57;100.00
68941;BME280;55982;51.476;7.552;2023-04-05T02:16:03;100461.03;;;-0.68;100.00
68941;BME280;55982;51.476;7.552;2023-04-05T02:18:28;100454.00;;;-0.75;100.00
68941;BME280;55982;51.476;7.552;2023-04-05T02:21:05;100462.72;;;-0.70;100.00
68941;BME280;55982;51.476;7.552;2023-04-05T02:23:31;100469.50;;;-0.72;100.00
68941;BME280;55982;51.476;7.552;2023-04-05T02:25:57;100467.75;;;-0.73;100.00
68941;BME280;55982;51.476;7.552;2023-04-05T02:28:24;100461.84;;;-0.69;100.00
68941;BME280;55982;51.476;7.552;2023-04-05T02:30:50;100464.50;;;-0.66;100.00
68941;BME280;55982;51.476;7.552;2023-04-05T02:33:15;100464.66;;;-0.60;100.00
68941;BME280;55982;51.476;7.552;2023-04-05T02:35:40;100462.97;;;-0.58;100.00
68941;BME280;55982;51.476;7.552;2023-04-05T02:38:06;100465.59;;;-0.55;100.00
68941;BME280;55982;51.476;7.552;2023-04-05T02:40:32;100459.50;;;-0.60;100.00
68941;BME280;55982;51.476;7.552;2023-04-05T02:42:58;100459.44;;;-0.63;100.00
68941;BME280;55982;51.476;7.552;2023-04-05T02:45:23;100462.75;;;-0.67;100.00
68941;BME280;55982;51.476;7.552;2023-04-05T02:47:48;100461.69;;;-0.76;100.00
68941;BME280;55982;51.476;7.552;2023-04-05T02:50:14;100459.03;;;-0.81;100.00
68941;BME280;55982;51.476;7.552;2023-04-05T02:52:44;100459.78;;;-0.86;100.00
68941;BME280;55982;51.476;7.552;2023-04-05T02:55:10;100455.44;;;-0.89;100.00
68941;BME280;55982;51.476;7.552;2023-04-05T02:57:35;100457.91;;;-0.92;100.00
68941;BME280;55982;51.476;7.552;2023-04-05T03:00:01;100458.66;;;-0.96;100.00
68941;BME280;55982;51.476;7.552;2023-04-05T03:02:29;100458.66;;;-0.96;100.00
68941;BME280;55982;51.476;7.552;2023-04-05T03:04:55;100453.63;;;-0.93;100.00
68941;BME280;55982;51.476;7.552;2023-04-05T03:07:21;100453.69;;;-0.90;100.00
68941;BME280;55982;51.476;7.552;2023-04-05T03:09:48;100452.94;;;-0.84;100.00
68941;BME280;55982;51.476;7.552;2023-04-05T03:12:15;100457.28;;;-0.82;100.00
68941;BME280;55982;51.476;7.552;2023-04-05T03:14:40;100445.34;;;-0.80;100.00
68941;BME280;55982;51.476;7.552;2023-04-05T03:17:06;100445.44;;;-0.77;100.00
68941;BME280;55982;51.476;7.552;2023-04-05T03:19:31;100447.22;;;-0.73;100.00
68941;BME280;55982;51.476;7.552;2023-04-05T03:21:57;100445.50;;;-0.74;100.00
68941;BME280;55982;51.476;7.552;2023-04-05T03:24:22;100451.56;;;-0.69;100.00
68941;BME280;55982;51.476;7.552;2023-04-05T03:26:49;100440.34;;;-0.74;100.00
68941;BME280;55982;51.476;7.552;2023-04-05T03:29:15;100450.56;;;-0.77;100.00
68941;BME280;55982;51.476;7.552;2023-04-05T03:31:41;100438.44;;;-0.82;100.00
68941;BME280;55982;51.476;7.552;2023-04-05T03:34:07;100431.69;;;-0.79;100.00
68941;BME280;55982;51.476;7.552;2023-04-05T03:36:33;100441.22;;;-0.73;100.00
68941;BME280;55982;51.476;7.552;2023-04-05T03:39:12;100438.81;;;-0.66;100.00
68941;BME280;55982;51.476;7.552;2023-04-05T03:41:39;100433.75;;;-0.63;100.00
68941;BME280;55982;51.476;7.552;2023-04-05T03:44:05;100436.38;;;-0.60;100.00
68941;BME280;55982;51.476;7.552;2023-04-05T03:46:31;100436.41;;;-0.58;100.00
68941;BME280;55982;51.476;7.552;2023-04-05T03:48:58;100434.72;;;-0.58;100.00
68941;BME280;55982;51.476;7.552;2023-04-05T03:51:23;100432.16;;;-0.58;100.00
68941;BME280;55982;51.476;7.552;2023-04-05T03:53:50;100432.00;;;-0.64;100.00
68941;BME280;55982;51.476;7.552;2023-04-05T03:56:15;100425.13;;;-0.65;100.00
68941;BME280;55982;51.476;7.552;2023-04-05T03:58:41;100430.22;;;-0.68;100.00
68941;BME280;55982;51.476;7.552;2023-04-05T04:01:06;100424.88;;;-0.77;100.00
68941;BME280;55982;51.476;7.552;2023-04-05T04:03:32;100427.31;;;-0.83;100.00
68941;BME280;55982;51.476;7.552;2023-04-05T04:05:57;100428.13;;;-0.84;100.00
68941;BME280;55982;51.476;7.552;2023-04-05T04:08:23;100423.88;;;-0.83;100.00
68941;BME280;55982;51.476;7.552;2023-04-05T04:10:49;100421.28;;;-0.85;100.00
68941;BME280;55982;51.476;7.552;2023-04-05T04:13:14;100417.81;;;-0.87;100.00
68941;BME280;55982;51.476;7.552;2023-04-05T04:15:40;100417.81;;;-0.87;100.00
68941;BME280;55982;51.476;7.552;2023-04-05T04:18:05;100419.47;;;-0.89;100.00
68941;BME280;55982;51.476;7.552;2023-04-05T04:20:31;100414.34;;;-0.89;100.00
68941;BME280;55982;51.476;7.552;2023-04-05T04:22:57;100419.38;;;-0.92;100.00
68941;BME280;55982;51.476;7.552;2023-04-05T04:25:23;100412.53;;;-0.93;100.00
68941;BME280;55982;51.476;7.552;2023-04-05T04:27:51;100426.13;;;-0.97;100.00
68941;BME280;55982;51.476;7.552;2023-04-05T04:30:17;100433.81;;;-0.99;100.00
68941;BME280;55982;51.476;7.552;2023-04-05T04:32:47;100419.91;;;-1.08;100.00
68941;BME280;55982;51.476;7.552;2023-04-05T04:35:16;100421.47;;;-1.13;100.00
68941;BME280;55982;51.476;7.552;2023-04-05T04:37:46;100425.66;;;-1.18;100.00
68941;BME280;55982;51.476;7.552;2023-04-05T04:40:15;100430.72;;;-1.21;100.00
68941;BME280;55982;51.476;7.552;2023-04-05T04:42:45;100437.44;;;-1.26;100.00
68941;BME280;55982;51.476;7.552;2023-04-05T04:45:14;100429.66;;;-1.29;100.00
68941;BME280;55982;51.476;7.552;2023-04-05T04:47:42;100433.81;;;-1.34;100.00
68941;BME280;55982;51.476;7.552;2023-04-05T04:50:08;100434.63;;;-1.37;100.00
68941;BME280;55982;51.476;7.552;2023-04-05T04:52:34;100425.28;;;-1.33;100.00
68941;BME280;55982;51.476;7.552;2023-04-05T04:55:00;100431.41;;;-1.27;100.00
68941;BME280;55982;51.476;7.552;2023-04-05T04:57:27;100433.22;;;-1.23;100.00
68941;BME280;55982;51.476;7.552;2023-04-05T04:59:53;100422.19;;;-1.20;100.00
68941;BME280;55982;51.476;7.552;2023-04-05T05:02:27;100427.47;;;-1.14;100.00
68941;BME280;55982;51.476;7.552;2023-04-05T05:04:53;100425.94;;;-1.06;100.00
68941;BME280;55982;51.476;7.552;2023-04-05T05:07:19;100422.53;;;-1.05;100.00
68941;BME280;55982;51.476;7.552;2023-04-05T05:09:45;100424.22;;;-1.06;100.00
68941;BME280;55982;51.476;7.552;2023-04-05T05:12:10;100424.34;;;-1.01;100.00
68941;BME280;55982;51.476;7.552;2023-04-05T05:14:36;100431.22;;;-1.00;100.00
68941;BME280;55982;51.476;7.552;2023-04-05T05:17:01;100422.38;;;-1.11;100.00
68941;BME280;55982;51.476;7.552;2023-04-05T05:19:29;100429.41;;;-1.04;100.00
68941;BME280;55982;51.476;7.552;2023-04-05T05:21:55;100422.81;;;-0.93;100.00
68941;BME280;55982;51.476;7.552;2023-04-05T05:24:21;100428.97;;;-0.86;100.00
68941;BME280;55982;51.476;7.552;2023-04-05T05:26:46;100427.47;;;-0.75;100.00
68941;BME280;55982;51.476;7.552;2023-04-05T05:29:12;100427.81;;;-0.60;100.00
68941;BME280;55982;51.476;7.552;2023-04-05T05:31:38;100434.13;;;-0.45;100.00
68941;BME280;55982;51.476;7.552;2023-04-05T05:34:04;100429.47;;;-0.21;100.00
68941;BME280;55982;51.476;7.552;2023-04-05T05:36:31;100428.34;;;0.12;100.00
68941;BME280;55982;51.476;7.552;2023-04-05T05:38:56;100425.19;;;0.25;100.00
68941;BME280;55982;51.476;7.552;2023-04-05T05:41:23;100419.28;;;0.30;100.00
68941;BME280;55982;51.476;7.552;2023-04-05T05:43:48;100418.66;;;0.45;100.00
68941;BME280;55982;51.476;7.552;2023-04-05T05:46:14;100414.47;;;0.50;100.00
68941;BME280;55982;51.476;7.552;2023-04-05T05:48:40;100421.66;;;0.69;100.00
68941;BME280;55982;51.476;7.552;2023-04-05T05:51:06;100420.91;;;0.76;100.00
68941;BME280;55982;51.476;7.552;2023-04-05T05:53:37;100414.25;;;0.90;100.00
68941;BME280;55982;51.476;7.552;2023-04-05T05:56:03;100407.41;;;0.92;100.00
68941;BME280;55982;51.476;7.552;2023-04-05T05:58:28;100414.41;;;1.02;100.00
68941;BME280;55982;51.476;7.552;2023-04-05T06:00:54;100419.75;;;1.13;100.00
68941;BME280;55982;51.476;7.552;2023-04-05T06:03:20;100419.84;;;1.20;100.00
68941;BME280;55982;51.476;7.552;2023-04-05T06:05:53;100423.59;;;1.45;100.00
68941;BME280;55982;51.476;7.552;2023-04-05T06:08:19;100421.19;;;1.57;100.00
68941;BME280;55982;51.476;7.552;2023-04-05T06:10:44;100420.56;;;1.74;100.00
68941;BME280;55982;51.476;7.552;2023-04-05T06:13:10;100422.19;;;1.68;100.00
68941;BME280;55982;51.476;7.552;2023-04-05T06:15:35;100424.03;;;1.79;100.00
68941;BME280;55982;51.476;7.552;2023-04-05T06:18:01;100417.03;;;1.68;100.00
68941;BME280;55982;51.476;7.552;2023-04-05T06:20:26;100414.38;;;1.63;100.00
68941;BME280;55982;51.476;7.552;2023-04-05T06:22:52;100422.09;;;1.60;100.00
68941;BME280;55982;51.476;7.552;2023-04-05T06:25:17;100418.88;;;1.79;100.00
68941;BME280;55982;51.476;7.552;2023-04-05T06:27:44;100418.94;;;1.85;100.00
68941;BME280;55982;51.476;7.552;2023-04-05T06:30:10;100423.38;;;1.96;100.00
68941;BME280;55982;51.476;7.552;2023-04-05T06:32:36;100415.84;;;2.17;100.00
68941;BME280;55982;51.476;7.552;2023-04-05T06:35:01;100411.66;;;2.29;100.00
68941;BME280;55982;51.476;7.552;2023-04-05T06:37:30;100422.88;;;2.30;100.00
68941;BME280;55982;51.476;7.552;2023-04-05T06:39:56;100420.47;;;2.51;100.00
68941;BME280;55982;51.476;7.552;2023-04-05T06:42:22;100419.00;;;2.80;100.00
68941;BME280;55982;51.476;7.552;2023-04-05T06:44:47;100419.94;;;2.94;100.00
68941;BME280;55982;51.476;7.552;2023-04-05T06:47:13;100408.78;;;2.98;100.00
68941;BME280;55982;51.476;7.552;2023-04-05T06:49:38;100410.66;;;3.20;100.00
68941;BME280;55982;51.476;7.552;2023-04-05T06:52:04;100413.41;;;3.53;100.00
68941;BME280;55982;51.476;7.552;2023-04-05T06:54:36;100416.13;;;3.85;100.00
68941;BME280;55982;51.476;7.552;2023-04-05T06:57:02;100418.75;;;3.99;100.00
68941;BME280;55982;51.476;7.552;2023-04-05T06:59:28;100413.63;;;4.20;100.00
68941;BME280;55982;51.476;7.552;2023-04-05T07:01:54;100407.63;;;4.61;100.00
68941;BME280;55982;51.476;7.552;2023-04-05T07:04:20;100405.03;;;4.87;100.00
68941;BME280;55982;51.476;7.552;2023-04-05T07:06:46;100408.44;;;5.10;100.00
68941;BME280;55982;51.476;7.552;2023-04-05T07:09:11;100401.44;;;5.45;100.00
68941;BME280;55982;51.476;7.552;2023-04-05T07:11:36;100403.91;;;5.82;100.00
68941;BME280;55982;51.476;7.552;2023-04-05T07:14:04;100409.88;;;6.05;100.00
68941;BME280;55982;51.476;7.552;2023-04-05T07:16:30;100405.22;;;6.52;100.00
68941;BME280;55982;51.476;7.552;2023-04-05T07:18:56;100409.91;;;7.09;100.00
68941;BME280;55982;51.476;7.552;2023-04-05T07:21:22;100406.97;;;7.43;95.73
68941;BME280;55982;51.476;7.552;2023-04-05T07:23:47;100400.81;;;8.15;86.71
68941;BME280;55982;51.476;7.552;2023-04-05T07:26:12;100409.47;;;8.78;90.71
68941;BME280;55982;51.476;7.552;2023-04-05T07:28:38;100404.72;;;8.99;79.67
68941;BME280;55982;51.476;7.552;2023-04-05T07:31:05;100400.06;;;9.18;79.26
68941;BME280;55982;51.476;7.552;2023-04-05T07:33:31;100401.22;;;9.48;73.25
68941;BME280;55982;51.476;7.552;2023-04-05T07:35:56;100397.97;;;9.78;68.57
68941;BME280;55982;51.476;7.552;2023-04-05T07:38:22;100398.69;;;10.27;67.60
68941;BME280;55982;51.476;7.552;2023-04-05T07:40:48;100398.25;;;10.45;65.45
68941;BME280;55982;51.476;7.552;2023-04-05T07:43:14;100398.25;;;11.16;65.42
68941;BME280;55982;51.476;7.552;2023-04-05T07:45:41;100407.03;;;11.13;60.02
68941;BME280;55982;51.476;7.552;2023-04-05T07:48:06;100399.72;;;11.24;57.21
68941;BME280;55982;51.476;7.552;2023-04-05T07:50:33;100401.88;;;11.08;56.59
68941;BME280;55982;51.476;7.552;2023-04-05T07:52:59;100406.19;;;11.45;56.07
68941;BME280;55982;51.476;7.552;2023-04-05T07:55:24;100397.56;;;12.01;55.09
68941;BME280;55982;51.476;7.552;2023-04-05T07:57:52;100396.97;;;11.91;56.05
68941;BME280;55982;51.476;7.552;2023-04-05T08:00:18;100395.75;;;12.32;52.68
68941;BME280;55982;51.476;7.552;2023-04-05T08:02:44;100386.81;;;12.65;51.06
68941;BME280;55982;51.476;7.552;2023-04-05T08:05:09;100393.56;;;12.72;51.68
68941;BME280;55982;51.476;7.552;2023-04-05T08:07:34;100394.84;;;12.33;52.77
68941;BME280;55982;51.476;7.552;2023-04-05T08:10:01;100402.72;;;12.87;51.78
68941;BME280;55982;51.476;7.552;2023-04-05T08:12:26;100403.75;;;13.09;46.77
68941;BME280;55982;51.476;7.552;2023-04-05T08:14:53;100412.00;;;12.43;48.70
68941;BME280;55982;51.476;7.552;2023-04-05T08:17:18;100405.34;;;13.13;46.43
68941;BME280;55982;51.476;7.552;2023-04-05T08:19:44;100400.44;;;13.29;45.10
68941;BME280;55982;51.476;7.552;2023-04-05T08:22:09;100397.16;;;13.70;45.20
68941;BME280;55982;51.476;7.552;2023-04-05T08:24:35;100395.78;;;14.06;43.95
68941;BME280;55982;51.476;7.552;2023-04-05T08:27:00;100395.81;;;13.83;43.43
68941;BME280;55982;51.476;7.552;2023-04-05T08:29:26;100388.03;;;13.80;44.46
68941;BME280;55982;51.476;7.552;2023-04-05T08:31:51;100389.38;;;13.19;43.53
68941;BME280;55982;51.476;7.552;2023-04-05T08:34:17;100390.44;;;13.63;45.06
68941;BME280;55982;51.476;7.552;2023-04-05T08:36:42;100393.88;;;13.88;42.94
68941;BME280;55982;51.476;7.552;2023-04-05T08:39:07;100384.75;;;13.97;43.16
68941;BME280;55982;51.476;7.552;2023-04-05T08:41:35;100389.63;;;13.84;42.46
68941;BME280;55982;51.476;7.552;2023-04-05T08:44:04;100374.72;;;14.31;43.42
68941;BME280;55982;51.476;7.552;2023-04-05T08:46:33;100382.56;;;14.96;42.34
68941;BME280;55982;51.476;7.552;2023-04-05T08:49:04;100382.94;;;15.07;41.00
68941;BME280;55982;51.476;7.552;2023-04-05T08:51:30;100385.75;;;15.83;40.33
68941;BME280;55982;51.476;7.552;2023-04-05T08:53:58;100376.91;;;16.39;37.89
68941;BME280;55982;51.476;7.552;2023-04-05T08:56:36;100384.31;;;16.31;37.81
68941;BME280;55982;51.476;7.552;2023-04-05T08:59:08;100385.00;;;15.79;39.16
68941;BME280;55982;51.476;7.552;2023-04-05T09:01:42;100384.19;;;16.34;37.79
68941;BME280;55982;51.476;7.552;2023-04-05T09:04:13;100380.44;;;17.44;35.03
68941;BME280;55982;51.476;7.552;2023-04-05T09:06:41;100378.47;;;14.89;38.26
68941;BME280;55982;51.476;7.552;2023-04-05T09:09:08;100381.00;;;16.64;36.68
68941;BME280;55982;51.476;7.552;2023-04-05T09:11:34;100376.19;;;16.36;36.91
68941;BME280;55982;51.476;7.552;2023-04-05T09:14:06;100381.38;;;14.16;40.74
68941;BME280;55982;51.476;7.552;2023-04-05T09:16:36;100377.91;;;13.46;42.48
68941;BME280;55982;51.476;7.552;2023-04-05T09:19:02;100376.75;;;13.53;42.16
68941;BME280;55982;51.476;7.552;2023-04-05T09:21:28;100373.94;;;13.35;42.50
68941;BME280;55982;51.476;7.552;2023-04-05T09:23:53;100386.13;;;15.55;38.47
68941;BME280;55982;51.476;7.552;2023-04-05T09:26:22;100377.22;;;15.96;38.28
68941;BME280;55982;51.476;7.552;2023-04-05T09:28:47;100377.84;;;15.02;39.98
68941;BME280;55982;51.476;7.552;2023-04-05T09:31:32;100372.97;;;14.30;41.84
68941;BME280;55982;51.476;7.552;2023-04-05T09:34:03;100375.72;;;15.12;39.13
68941;BME280;55982;51.476;7.552;2023-04-05T09:36:29;100374.50;;;15.39;38.32
68941;BME280;55982;51.476;7.552;2023-04-05T09:39:07;100362.31;;;13.65;41.91
68941;BME280;55982;51.476;7.552;2023-04-05T09:41:34;100362.88;;;15.44;39.27
68941;BME280;55982;51.476;7.552;2023-04-05T09:44:00;100366.03;;;14.92;40.23
68941;BME280;55982;51.476;7.552;2023-04-05T09:46:29;100364.75;;;14.81;39.29
68941;BME280;55982;51.476;7.552;2023-04-05T09:48:55;100368.72;;;13.81;40.76
68941;BME280;55982;51.476;7.552;2023-04-05T09:51:21;100367.16;;;13.99;41.49
68941;BME280;55982;51.476;7.552;2023-04-05T09:53:56;100367.75;;;15.72;39.40
68941;BME280;55982;51.476;7.552;2023-04-05T09:56:27;100377.84;;;15.44;40.47
68941;BME280;55982;51.476;7.552;2023-04-05T09:58:56;100376.31;;;15.38;38.93
68941;BME280;55982;51.476;7.552;2023-04-05T10:01:25;100373.06;;;14.92;38.30
68941;BME280;55982;51.476;7.552;2023-04-05T10:03:51;100361.44;;;13.88;40.88
68941;BME280;55982;51.476;7.552;2023-04-05T10:06:17;100363.19;;;13.16;41.07
68941;BME280;55982;51.476;7.552;2023-04-05T10:08:45;100360.13;;;15.66;38.43
68941;BME280;55982;51.476;7.552;2023-04-05T10:11:11;100350.09;;;14.53;39.87
68941;BME280;55982;51.476;7.552;2023-04-05T10:13:39;100358.97;;;11.77;41.64
68941;BME280;55982;51.476;7.552;2023-04-05T10:16:10;100350.44;;;12.79;41.32
68941;BME280;55982;51.476;7.552;2023-04-05T10:18:46;100342.28;;;13.38;40.42
68941;BME280;55982;51.476;7.552;2023-04-05T10:21:13;100348.13;;;12.97;42.33
68941;BME280;55982;51.476;7.552;2023-04-05T10:23:43;100353.22;;;14.83;38.46
68941;BME280;55982;51.476;7.552;2023-04-05T10:29:01;100335.94;;;12.69;39.87
68941;BME280;55982;51.476;7.552;2023-04-05T10:31:50;100337.22;;;12.30;41.67
68941;BME280;55982;51.476;7.552;2023-04-05T10:34:27;100342.75;;;13.72;39.47
68941;BME280;55982;51.476;7.552;2023-04-05T10:37:01;100333.25;;;15.95;37.20
68941;BME280;55982;51.476;7.552;2023-04-05T10:39:34;100331.47;;;17.03;38.24
68941;BME280;55982;51.476;7.552;2023-04-05T10:42:20;100331.66;;;17.50;34.71
68941;BME280;55982;51.476;7.552;2023-04-05T10:44:51;100345.78;;;19.04;32.52
68941;BME280;55982;51.476;7.552;2023-04-05T10:47:22;100330.75;;;16.46;33.90
68941;BME280;55982;51.476;7.552;2023-04-05T10:49:52;100332.59;;;15.53;35.94
68941;BME280;55982;51.476;7.552;2023-04-05T10:52:21;100333.81;;;16.20;35.20
68941;BME280;55982;51.476;7.552;2023-04-05T10:54:48;100328.28;;;15.12;36.26
68941;BME280;55982;51.476;7.552;2023-04-05T10:57:14;100328.09;;;15.55;35.99
68941;BME280;55982;51.476;7.552;2023-04-05T10:59:41;100329.13;;;14.50;36.76
68941;BME280;55982;51.476;7.552;2023-04-05T11:02:08;100322.09;;;16.26;36.09
68941;BME280;55982;51.476;7.552;2023-04-05T11:04:33;100324.25;;;16.36;34.79
68941;BME280;55982;51.476;7.552;2023-04-05T11:07:18;100326.56;;;15.11;36.22
68941;BME280;55982;51.476;7.552;2023-04-05T11:20:47;100312.91;;;15.21;37.06
68941;BME280;55982;51.476;7.552;2023-04-05T11:23:17;100315.75;;;14.97;35.47
68941;BME280;55982;51.476;7.552;2023-04-05T11:26:03;100298.88;;;17.52;33.44
68941;BME280;55982;51.476;7.552;2023-04-05T11:28:36;100300.81;;;15.36;35.61
68941;BME280;55982;51.476;7.552;2023-04-05T11:31:15;100304.03;;;17.55;32.87
68941;BME280;55982;51.476;7.552;2023-04-05T11:41:52;100291.84;;;17.18;33.87
68941;BME280;55982;51.476;7.552;2023-04-05T11:44:18;100288.88;;;16.75;33.64
68941;BME280;55982;51.476;7.552;2023-04-05T11:46:48;100285.09;;;18.09;31.40
68941;BME280;55982;51.476;7.552;2023-04-05T11:49:14;100280.81;;;17.60;32.51
68941;BME280;55982;51.476;7.552;2023-04-05T11:51:40;100275.84;;;18.48;32.83
68941;BME280;55982;51.476;7.552;2023-04-05T11:54:13;100269.13;;;19.84;30.33
68941;BME280;55982;51.476;7.552;2023-04-05T11:56:38;100279.00;;;20.37;28.15
68941;BME280;55982;51.476;7.552;2023-04-05T11:59:03;100267.31;;;17.49;32.13
68941;BME280;55982;51.476;7.552;2023-04-05T12:01:29;100267.53;;;14.95;35.26
68941;BME280;55982;51.476;7.552;2023-04-05T12:03:55;100264.06;;;18.06;32.44
68941;BME280;55982;51.476;7.552;2023-04-05T12:06:22;100262.31;;;18.37;29.46
68941;BME280;55982;51.476;7.552;2023-04-05T12:08:48;100258.16;;;17.22;32.27
68941;BME280;55982;51.476;7.552;2023-04-05T12:11:29;100260.66;;;18.20;32.44
68941;BME280;55982;51.476;7.552;2023-04-05T12:13:59;100260.66;;;17.25;33.19
68941;BME280;55982;51.476;7.552;2023-04-05T12:16:25;100246.38;;;17.12;32.30
68941;BME280;55982;51.476;7.552;2023-04-05T12:18:56;100237.81;;;14.09;35.13
68941;BME280;55982;51.476;7.552;2023-04-05T12:21:21;100254.69;;;14.87;34.48
68941;BME280;55982;51.476;7.552;2023-04-05T12:23:48;100239.84;;;15.25;35.43
68941;BME280;55982;51.476;7.552;2023-04-05T12:26:14;100244.28;;;15.43;34.93
68941;BME280;55982;51.476;7.552;2023-04-05T12:31:15;100234.63;;;17.33;33.36
68941;BME280;55982;51.476;7.552;2023-04-05T12:33:42;100240.84;;;19.29;30.89
68941;BME280;55982;51.476;7.552;2023-04-05T12:36:08;100234.47;;;17.84;32.68
68941;BME280;55982;51.476;7.552;2023-04-05T12:38:36;100231.97;;;18.72;30.25
68941;BME280;55982;51.476;7.552;2023-04-05T12:41:02;100234.16;;;16.77;32.00
68941;BME280;55982;51.476;7.552;2023-04-05T12:43:41;100233.06;;;18.08;31.06
68941;BME280;55982;51.476;7.552;2023-04-05T12:46:09;100223.78;;;16.89;32.87
68941;BME280;55982;51.476;7.552;2023-04-05T12:48:36;100238.75;;;16.03;32.26
68941;BME280;55982;51.476;7.552;2023-04-05T12:51:03;100234.31;;;18.33;30.17
68941;BME280;55982;51.476;7.552;2023-04-05T12:53:29;100230.63;;;17.90;28.85
68941;BME280;55982;51.476;7.552;2023-04-05T12:55:55;100225.69;;;17.35;31.50
68941;BME280;55982;51.476;7.552;2023-04-05T12:58:31;100216.03;;;18.44;29.56
68941;BME280;55982;51.476;7.552;2023-04-05T13:00:58;100216.69;;;18.47;29.69
68941;BME280;55982;51.476;7.552;2023-04-05T13:03:25;100206.06;;;18.91;29.04
68941;BME280;55982;51.476;7.552;2023-04-05T13:05:50;100206.31;;;17.35;28.48
68941;BME280;55982;51.476;7.552;2023-04-05T13:08:16;100203.06;;;16.47;30.33
68941;BME280;55982;51.476;7.552;2023-04-05T13:10:46;100199.09;;;15.50;31.15
68941;BME280;55982;51.476;7.552;2023-04-05T13:13:13;100206.50;;;15.61;30.76
68941;BME280;55982;51.476;7.552;2023-04-05T13:15:38;100199.88;;;14.95;33.38
68941;BME280;55982;51.476;7.552;2023-04-05T13:18:04;100195.25;;;13.35;36.38
68941;BME280;55982;51.476;7.552;2023-04-05T13:20:30;100203.69;;;12.97;37.75
68941;BME280;55982;51.476;7.552;2023-04-05T13:22:55;100194.41;;;12.37;39.18
68941;BME280;55982;51.476;7.552;2023-04-05T13:25:21;100190.75;;;12.67;39.72